Lindsay, Montana
Current Conditions -  °F | °C
As of 7:55 AM on Monday 22 Dec 2014 (Local Time) from KGDV Reporting Station
Overcast Overcast  
Wind Chill: 20°   Ceiling: 1600
Heat Index: 30°   Visibility: 3mi
Dew Point: 27°   Wind: 14mph
Humidity: 86%   Direction: 310°NW
Pressure: 29.59"   Gusts: 23mph
Location:  47.22°N, 105.15°W
Report Text: KGDV 221455Z AUTO 31012G20KT 3SM SCT010 BKN016 OVC020 M01/M03 A2959 RMK AO1 52017
Loading
Personal Weather Stations






























Interactive Weather Map New forecast layout! Learn more

10-Day Weather Forecast

Advertisements
Track Severe Weather on mobile